Suakin — ZCIL — position and weather

sailwx.info

Track history (hours):
 
Tides and Currents Weather Stations Pressure Air Temp Water Temp Dewpoint Dewpoint Depression Visibility Wind Speed Wind Dir Waves Ship Positions

Suakin

Last reported at 2017-Nov-17 11:43 UTC. Time now 2017-Nov-22 18:23 UTC.
Position N 37°17' W 000°58'.

Length 37 m; draft 2.5 m.

Type: Pleasure craft. MMSI: 319897000.

Date/timePositionNaut miles runAvg speedWind from/ knotsBaromVisibWave heightAir tempDewpointWater temp
2017-Nov-17 11:43N 37°17' W 000°58'311.0
2017-Nov-17 11:26N 37°19' W 000°55'611.0
2017-Nov-17 10:54N 37°23' W 000°49'410.9
2017-Nov-17 10:30N 37°25' W 000°45'911.0
2017-Nov-17 09:38N 37°32' W 000°36'210.9
2017-Nov-17 09:30N 37°33' W 000°34'510.8
2017-Nov-17 09:00N 37°37' W 000°31'611.1
2017-Nov-17 08:30N 37°42' W 000°28'47710.8
2017-Nov-15 12:10N 43°19' E 006°57'211.8
2017-Nov-15 12:00N 43°21' E 006°58'611.5
2017-Nov-15 11:30N 43°26' E 007°03'611.3
2017-Nov-15 11:00N 43°30' E 007°08'5 9.3
2017-Nov-15 10:30N 43°34' E 007°10'2 2.8
2017-Nov-15 09:51N 43°35' E 007°08'0 0.0
2017-Nov-15 08:39N 43°35' E 007°08'0 0.0
2017-Nov-15 08:27N 43°35' E 007°08'0 0.0
2017-Nov-15 07:51N 43°35' E 007°08'0 0.0
2017-Nov-15 07:24N 43°35' E 007°08'0 0.0
2017-Nov-15 06:54N 43°35' E 007°08'0 0.0
2017-Nov-15 06:24N 43°35' E 007°08'0 0.0
2017-Nov-15 05:57N 43°35' E 007°08'0 0.0
2017-Nov-15 05:30N 43°35' E 007°08'0 0.0
2017-Nov-15 04:57N 43°35' E 007°08'0 0.0
2017-Nov-15 04:27N 43°35' E 007°08'0 0.0
2017-Nov-15 03:57N 43°35' E 007°08'0 0.0
2017-Nov-15 03:27N 43°35' E 007°08'0 0.0
2017-Nov-15 03:00N 43°35' E 007°08'0 0.0
2017-Nov-15 02:27N 43°35' E 007°08'0 0.0
2017-Nov-15 02:00N 43°35' E 007°08'0 0.0
2017-Nov-15 01:03N 43°35' E 007°08'0 0.0
2017-Nov-15 01:00N 43°35' E 007°08'0 0.0
2017-Nov-15 00:30N 43°35' E 007°08'0 0.0
2017-Nov-14 23:48N 43°35' E 007°08'0 0.0
2017-Nov-14 23:21N 43°35' E 007°08'0 0.0
2017-Nov-14 22:51N 43°35' E 007°08'0 0.0
2017-Nov-14 22:30N 43°35' E 007°08'0 0.0
2017-Nov-14 21:06N 43°35' E 007°08'0 0.0
2017-Nov-14 20:06N 43°35' E 007°08'0 0.0
2017-Nov-14 19:51N 43°35' E 007°08'0 0.0
2017-Nov-14 19:21N 43°35' E 007°08'0 0.0
2017-Nov-14 18:54N 43°35' E 007°08'0 0.0
2017-Nov-14 16:24N 43°35' E 007°08'0 0.0
2017-Nov-14 10:27N 43°35' E 007°08'0 0.0
2017-Nov-14 10:00N 43°35' E 007°08'0 0.0
2017-Nov-14 09:30N 43°35' E 007°08'0 0.0
2017-Nov-14 08:33N 43°35' E 007°08'0 0.0
2017-Nov-14 08:15N 43°35' E 007°08'0 0.0
2017-Nov-14 07:33N 43°35' E 007°08'0 0.0
2017-Nov-14 07:21N 43°35' E 007°08'0 0.0
2017-Nov-14 06:51N 43°35' E 007°08'0 0.0
2017-Nov-14 06:21N 43°35' E 007°08'0 0.0
2017-Nov-14 05:48N 43°35' E 007°08'0 0.0
2017-Nov-14 04:09N 43°35' E 007°08'0 0.0
2017-Nov-14 03:54N 43°35' E 007°08'0 0.0
2017-Nov-14 02:21N 43°35' E 007°08'0 0.0
2017-Nov-14 01:54N 43°35' E 007°08'0 0.0
2017-Nov-14 00:39N 43°35' E 007°08'0 0.0
2017-Nov-14 00:27N 43°35' E 007°08'0 0.0
2017-Nov-13 23:24N 43°35' E 007°08'0 0.0
2017-Nov-13 22:24N 43°35' E 007°08'0 0.0
2017-Nov-13 21:57N 43°35' E 007°08'0 0.0
2017-Nov-12 10:03N 43°35' E 007°08'0 0.0
2017-Nov-11 10:06N 43°35' E 007°08'3 0.1
2017-Nov-10 10:13N 43°37' E 007°10'2 5.7
2017-Nov-10 09:53N 43°36' E 007°12'2 4.4
2017-Nov-10 09:30N 43°35' E 007°10'  
Track history (hours):
 
Tides and Currents Weather Stations Pressure Air Temp Water Temp Dewpoint Dewpoint Depression Visibility Wind Speed Wind Dir Waves Ship Positions

Suakin

Last reported at 2017-Nov-17 11:43 UTC. Time now 2017-Nov-22 18:23 UTC.
Position N 37°17' W 000°58'.

Length 37 m; draft 2.5 m.

Type: Pleasure craft. MMSI: 319897000.

Date/timePositionNaut miles runAvg speedWind from/ knotsBaromVisibWave heightAir tempDewpointWater temp
2017-Nov-17 11:43N 37°17' W 000°58'311.0
2017-Nov-17 11:26N 37°19' W 000°55'611.0
2017-Nov-17 10:54N 37°23' W 000°49'410.9
2017-Nov-17 10:30N 37°25' W 000°45'911.0
2017-Nov-17 09:38N 37°32' W 000°36'210.9
2017-Nov-17 09:30N 37°33' W 000°34'510.8
2017-Nov-17 09:00N 37°37' W 000°31'611.1
2017-Nov-17 08:30N 37°42' W 000°28'47710.8
2017-Nov-15 12:10N 43°19' E 006°57'211.8
2017-Nov-15 12:00N 43°21' E 006°58'611.5
2017-Nov-15 11:30N 43°26' E 007°03'611.3
2017-Nov-15 11:00N 43°30' E 007°08'5 9.3
2017-Nov-15 10:30N 43°34' E 007°10'2 2.8
2017-Nov-15 09:51N 43°35' E 007°08'0 0.0
2017-Nov-15 08:39N 43°35' E 007°08'0 0.0
2017-Nov-15 08:27N 43°35' E 007°08'0 0.0
2017-Nov-15 07:51N 43°35' E 007°08'0 0.0
2017-Nov-15 07:24N 43°35' E 007°08'0 0.0
2017-Nov-15 06:54N 43°35' E 007°08'0 0.0
2017-Nov-15 06:24N 43°35' E 007°08'0 0.0
2017-Nov-15 05:57N 43°35' E 007°08'0 0.0
2017-Nov-15 05:30N 43°35' E 007°08'0 0.0
2017-Nov-15 04:57N 43°35' E 007°08'0 0.0
2017-Nov-15 04:27N 43°35' E 007°08'0 0.0
2017-Nov-15 03:57N 43°35' E 007°08'0 0.0
2017-Nov-15 03:27N 43°35' E 007°08'0 0.0
2017-Nov-15 03:00N 43°35' E 007°08'0 0.0
2017-Nov-15 02:27N 43°35' E 007°08'0 0.0
2017-Nov-15 02:00N 43°35' E 007°08'0 0.0
2017-Nov-15 01:03N 43°35' E 007°08'0 0.0
2017-Nov-15 01:00N 43°35' E 007°08'0 0.0
2017-Nov-15 00:30N 43°35' E 007°08'0 0.0
2017-Nov-14 23:48N 43°35' E 007°08'0 0.0
2017-Nov-14 23:21N 43°35' E 007°08'0 0.0
2017-Nov-14 22:51N 43°35' E 007°08'0 0.0
2017-Nov-14 22:30N 43°35' E 007°08'0 0.0
2017-Nov-14 21:06N 43°35' E 007°08'0 0.0
2017-Nov-14 20:06N 43°35' E 007°08'0 0.0
2017-Nov-14 19:51N 43°35' E 007°08'0 0.0
2017-Nov-14 19:21N 43°35' E 007°08'0 0.0
2017-Nov-14 18:54N 43°35' E 007°08'0 0.0
2017-Nov-14 16:24N 43°35' E 007°08'0 0.0
2017-Nov-14 10:27N 43°35' E 007°08'0 0.0
2017-Nov-14 10:00N 43°35' E 007°08'0 0.0
2017-Nov-14 09:30N 43°35' E 007°08'0 0.0
2017-Nov-14 08:33N 43°35' E 007°08'0 0.0
2017-Nov-14 08:15N 43°35' E 007°08'0 0.0
2017-Nov-14 07:33N 43°35' E 007°08'0 0.0
2017-Nov-14 07:21N 43°35' E 007°08'0 0.0
2017-Nov-14 06:51N 43°35' E 007°08'0 0.0
2017-Nov-14 06:21N 43°35' E 007°08'0 0.0
2017-Nov-14 05:48N 43°35' E 007°08'0 0.0
2017-Nov-14 04:09N 43°35' E 007°08'0 0.0
2017-Nov-14 03:54N 43°35' E 007°08'0 0.0
2017-Nov-14 02:21N 43°35' E 007°08'0 0.0
2017-Nov-14 01:54N 43°35' E 007°08'0 0.0
2017-Nov-14 00:39N 43°35' E 007°08'0 0.0
2017-Nov-14 00:27N 43°35' E 007°08'0 0.0
2017-Nov-13 23:24N 43°35' E 007°08'0 0.0
2017-Nov-13 22:24N 43°35' E 007°08'0 0.0
2017-Nov-13 21:57N 43°35' E 007°08'0 0.0
2017-Nov-12 10:03N 43°35' E 007°08'0 0.0
2017-Nov-11 10:06N 43°35' E 007°08'3 0.1
2017-Nov-10 10:13N 43°37' E 007°10'2 5.7
2017-Nov-10 09:53N 43°36' E 007°12'2 4.4
2017-Nov-10 09:30N 43°35' E 007°10'  

Dump ship's entire track history